Time;durP1;ratioP1;P1;durP2;ratioP2;P2;SDS_P1;SDS_P2;PMS_P1;PMS_P2;Temp;Humidity;BMP_temperature;BMP_pressure;BME280_temperature;BME280_humidity;BME280_pressure;Samples;Min_cycle;Max_cycle;Signal;HPM_P1;HPM_P2
2024/01/03 00:00:14;;;;;;;13.65;4.28;;;;;;;;;;5000884;28;20576;-72
2024/01/03 00:02:41;;;;;;;14.00;4.68;;;;;;;;;;4992577;28;20041;-72
2024/01/03 00:05:09;;;;;;;13.15;4.93;;;;;;;;;;5001035;28;20029;-72
2024/01/03 00:07:35;;;;;;;13.50;4.85;;;;;;;;;;4999611;28;20072;-71
2024/01/03 00:10:01;;;;;;;15.13;5.55;;;;;;;;;;4996317;28;20083;-73
2024/01/03 00:12:27;;;;;;;;;;;;;;;;;;4997699;28;20033;-73
2024/01/03 00:14:53;;;;;;;13.70;4.70;;;;;;;;;;4995703;28;19912;-72
2024/01/03 00:17:20;;;;;;;15.88;4.90;;;;;;;;;;4993847;28;20025;-73
2024/01/03 00:19:49;;;;;;;15.98;5.00;;;;;;;;;;4991967;28;20043;-71
2024/01/03 00:22:16;;;;;;;13.85;4.82;;;;;;;;;;4994865;28;20049;-72
2024/01/03 00:24:49;;;;;;;16.63;4.53;;;;;;;;;;4995531;28;20032;-72
2024/01/03 00:27:16;;;;;;;14.70;5.68;;;;;;;;;;5000251;28;20029;-72
2024/01/03 00:29:51;;;;;;;12.98;4.70;;;;;;;;;;4995713;28;20029;-72
2024/01/03 00:32:18;;;;;;;13.18;4.53;;;;;;;;;;4997530;28;20839;-72
2024/01/03 00:34:45;;;;;;;13.38;4.53;;;;;;;;;;4992487;28;20038;-72
2024/01/03 00:37:11;;;;;;;;;;;;;;;;;;4995006;28;20046;-73
2024/01/03 00:39:37;;;;;;;13.75;5.07;;;;;;;;;;4994156;28;19913;-72
2024/01/03 00:42:04;;;;;;;;;;;;;;;;;;4996128;28;20586;-74
2024/01/03 00:44:31;;;;;;;12.77;4.03;;;;;;;;;;4996080;28;20409;-72
2024/01/03 00:46:59;;;;;;;19.27;9.55;;;;;;;;;;5006057;28;20038;-71
2024/01/03 00:49:26;;;;;;;19.90;11.07;;;;;;;;;;4994280;28;20112;-72
2024/01/03 00:51:54;;;;;;;13.30;6.32;;;;;;;;;;5005638;28;20041;-72
2024/01/03 00:54:23;;;;;;;14.75;5.53;;;;;;;;;;4996357;28;20030;-72
2024/01/03 00:56:50;;;;;;;13.88;4.97;;;;;;;;;;4992742;28;20575;-72
2024/01/03 00:59:17;;;;;;;11.93;3.88;;;;;;;;;;4998053;28;20049;-72
2024/01/03 01:01:43;;;;;;;11.63;3.70;;;;;;;;;;4994508;28;20038;-72
2024/01/03 01:04:10;;;;;;;11.35;3.42;;;;;;;;;;5012190;28;20030;-72
2024/01/03 01:06:36;;;;;;;9.25;2.53;;;;;;;;;;4995859;28;20033;-72
2024/01/03 01:09:04;;;;;;;10.82;2.92;;;;;;;;;;4998692;28;20381;-72
2024/01/03 01:11:31;;;;;;;9.30;2.70;;;;;;;;;;5000290;28;20025;-72
2024/01/03 01:13:57;;;;;;;9.27;2.75;;;;;;;;;;4995817;28;20058;-72
2024/01/03 01:16:23;;;;;;;10.98;3.53;;;;;;;;;;4995398;28;20167;-72
2024/01/03 01:18:49;;;;;;;13.77;3.85;;;;;;;;;;5009204;28;20069;-73
2024/01/03 01:21:15;;;;;;;12.25;3.92;;;;;;;;;;4997867;28;20021;-73
2024/01/03 01:23:42;;;;;;;10.60;3.38;;;;;;;;;;4993693;28;20041;-72
2024/01/03 01:26:08;;;;;;;;;;;;;;;;;;5005029;28;20029;-73
2024/01/03 01:28:34;;;;;;;13.00;4.18;;;;;;;;;;5001077;28;20195;-73
2024/01/03 01:31:00;;;;;;;11.68;3.47;;;;;;;;;;5006836;28;20034;-73
2024/01/03 01:33:27;;;;;;;15.02;4.00;;;;;;;;;;5024304;28;20047;-73
2024/01/03 01:35:53;;;;;;;13.43;3.97;;;;;;;;;;5007257;28;20045;-73
2024/01/03 01:38:19;;;;;;;11.43;3.55;;;;;;;;;;5008916;28;20556;-73
2024/01/03 01:40:48;;;;;;;11.43;3.70;;;;;;;;;;5009147;28;20075;-73
2024/01/03 01:43:14;;;;;;;11.63;3.80;;;;;;;;;;5006631;28;20032;-73
2024/01/03 01:45:40;;;;;;;;;;;;;;;;;;5000547;28;20084;-72
2024/01/03 01:48:09;;;;;;;12.88;3.80;;;;;;;;;;5015158;28;20547;-72
2024/01/03 01:50:36;;;;;;;16.88;4.05;;;;;;;;;;5009079;28;20510;-72
2024/01/03 01:53:02;;;;;;;13.13;4.05;;;;;;;;;;5010394;28;20103;-72
2024/01/03 01:55:28;;;;;;;13.32;3.95;;;;;;;;;;5000417;28;20064;-71
2024/01/03 01:57:56;;;;;;;10.25;3.38;;;;;;;;;;5000531;28;20041;-72
2024/01/03 02:00:22;;;;;;;12.48;3.92;;;;;;;;;;5000499;28;20748;-71
2024/01/03 02:02:49;;;;;;;13.15;4.03;;;;;;;;;;4997764;28;20601;-71
2024/01/03 02:05:17;;;;;;;15.27;3.90;;;;;;;;;;5000939;28;20033;-72
2024/01/03 02:07:43;;;;;;;11.52;3.25;;;;;;;;;;4993625;28;20101;-72
2024/01/03 02:10:10;;;;;;;11.68;3.47;;;;;;;;;;5000075;28;20125;-72
2024/01/03 02:12:38;;;;;;;13.70;4.10;;;;;;;;;;5001779;28;20041;-72
2024/01/03 02:15:06;;;;;;;9.55;3.35;;;;;;;;;;5000592;28;20037;-72
2024/01/03 02:17:34;;;;;;;12.70;3.53;;;;;;;;;;5002235;28;20540;-71
2024/01/03 02:20:02;;;;;;;12.93;3.55;;;;;;;;;;5000117;28;20033;-71
2024/01/03 02:22:29;;;;;;;11.05;3.58;;;;;;;;;;5003154;28;20026;-71
2024/01/03 02:24:56;;;;;;;11.77;3.42;;;;;;;;;;5002717;28;20872;-72
2024/01/03 02:27:22;;;;;;;13.68;3.35;;;;;;;;;;5008365;28;20084;-71
2024/01/03 02:29:48;;;;;;;11.85;3.13;;;;;;;;;;5009300;28;20095;-72
2024/01/03 02:32:15;;;;;;;14.77;3.65;;;;;;;;;;5012989;28;20112;-71
2024/01/03 02:34:41;;;;;;;10.48;3.25;;;;;;;;;;5005070;28;20045;-71
2024/01/03 02:37:09;;;;;;;15.50;3.85;;;;;;;;;;5012358;28;20036;-71
2024/01/03 02:39:35;;;;;;;11.63;3.30;;;;;;;;;;5008955;28;20747;-71
2024/01/03 02:42:01;;;;;;;12.98;3.70;;;;;;;;;;5006985;28;20044;-71
2024/01/03 02:44:27;;;;;;;;;;;;;;;;;;5012582;28;20623;-71
2024/01/03 02:46:59;;;;;;;13.60;3.47;;;;;;;;;;5004995;28;19912;-71
2024/01/03 02:49:25;;;;;;;12.15;3.40;;;;;;;;;;5010081;28;20029;-71
2024/01/03 02:51:51;;;;;;;9.75;2.85;;;;;;;;;;5008337;28;20068;-71
2024/01/03 02:54:17;;;;;;;12.27;3.30;;;;;;;;;;5000933;28;20041;-71
2024/01/03 02:56:43;;;;;;;13.77;3.40;;;;;;;;;;4995207;28;20546;-71
2024/01/03 02:59:09;;;;;;;11.52;3.63;;;;;;;;;;5000130;28;20144;-71
2024/01/03 03:01:37;;;;;;;12.18;3.78;;;;;;;;;;4993717;28;20033;-71
2024/01/03 03:04:04;;;;;;;12.38;3.80;;;;;;;;;;4999399;28;20515;-71
2024/01/03 03:06:30;;;;;;;14.10;4.05;;;;;;;;;;5012386;28;20038;-71
2024/01/03 03:08:58;;;;;;;12.77;3.50;;;;;;;;;;4993025;28;20034;-71
2024/01/03 03:11:24;;;;;;;11.80;3.33;;;;;;;;;;5000765;28;20159;-71
2024/01/03 03:13:50;;;;;;;10.65;3.22;;;;;;;;;;4996561;28;20425;-72
2024/01/03 03:16:16;;;;;;;13.15;3.50;;;;;;;;;;5000169;28;20498;-72
2024/01/03 03:18:42;;;;;;;;;;;;;;;;;;4999000;28;20036;-71
2024/01/03 03:21:09;;;;;;;12.60;3.95;;;;;;;;;;4998292;28;19914;-71
2024/01/03 03:23:36;;;;;;;13.35;3.47;;;;;;;;;;4998852;28;20447;-71
2024/01/03 03:26:03;;;;;;;13.35;3.55;;;;;;;;;;5001067;28;20068;-72
2024/01/03 03:28:31;;;;;;;12.02;3.67;;;;;;;;;;5010050;28;20030;-71
2024/01/03 03:30:58;;;;;;;12.05;3.70;;;;;;;;;;5018908;28;20065;-70
2024/01/03 03:33:25;;;;;;;13.40;3.30;;;;;;;;;;5008122;28;20038;-73
2024/01/03 03:35:51;;;;;;;12.52;3.58;;;;;;;;;;5005300;28;20034;-73
2024/01/03 03:38:17;;;;;;;11.48;3.78;;;;;;;;;;5010092;28;20785;-73
2024/01/03 03:40:43;;;;;;;15.10;3.90;;;;;;;;;;5002562;28;20033;-72
2024/01/03 03:43:11;;;;;;;14.73;3.88;;;;;;;;;;5009360;28;20632;-73
2024/01/03 03:45:37;;;;;;;14.20;3.60;;;;;;;;;;5010322;28;20315;-72
2024/01/03 03:48:04;;;;;;;12.60;3.67;;;;;;;;;;5010333;28;20082;-71
2024/01/03 03:50:31;;;;;;;12.60;3.40;;;;;;;;;;5004349;28;20119;-72
2024/01/03 03:52:57;;;;;;;10.75;3.15;;;;;;;;;;5009396;28;20026;-72
2024/01/03 03:55:23;;;;;;;13.90;3.47;;;;;;;;;;5010009;28;20029;-73
2024/01/03 03:57:49;;;;;;;12.40;3.22;;;;;;;;;;5007400;28;21540;-71
2024/01/03 04:00:15;;;;;;;15.00;3.55;;;;;;;;;;5010905;28;20049;-70
2024/01/03 04:02:43;;;;;;;;;;;;;;;;;;5006613;28;20029;-71
2024/01/03 04:05:09;;;;;;;;;;;;;;;;;;5006767;28;19916;-71
2024/01/03 04:07:37;;;;;;;12.63;3.53;;;;;;;;;;5006312;28;19951;-71
2024/01/03 04:10:05;;;;;;;12.77;3.25;;;;;;;;;;5010768;28;20025;-71
2024/01/03 04:12:36;;;;;;;13.27;3.50;;;;;;;;;;5013021;28;20041;-71
2024/01/03 04:15:03;;;;;;;12.05;3.38;;;;;;;;;;5007196;28;20595;-71
2024/01/03 04:17:29;;;;;;;;;;;;;;;;;;5020214;28;20033;-72
2024/01/03 04:19:55;;;;;;;10.82;3.15;;;;;;;;;;5005370;28;19912;-72
2024/01/03 04:22:22;;;;;;;10.75;3.60;;;;;;;;;;5010109;28;20025;-72
2024/01/03 04:24:48;;;;;;;11.85;3.10;;;;;;;;;;5002183;28;20036;-73
2024/01/03 04:27:14;;;;;;;10.25;3.30;;;;;;;;;;5012058;28;20609;-73
2024/01/03 04:29:40;;;;;;;10.90;3.20;;;;;;;;;;5010211;28;20124;-73
2024/01/03 04:32:07;;;;;;;11.60;3.17;;;;;;;;;;5013924;28;20626;-73
2024/01/03 04:34:33;;;;;;;11.45;2.80;;;;;;;;;;5014308;28;20021;-73
2024/01/03 04:37:00;;;;;;;;;;;;;;;;;;5007976;28;20539;-72
2024/01/03 04:39:26;;;;;;;11.80;3.08;;;;;;;;;;5010576;28;19920;-72
2024/01/03 04:41:52;;;;;;;12.18;2.90;;;;;;;;;;5005430;28;20368;-73
2024/01/03 04:44:19;;;;;;;12.30;2.97;;;;;;;;;;5014130;28;20057;-71
2024/01/03 04:46:45;;;;;;;8.82;2.58;;;;;;;;;;5010764;28;20033;-73
2024/01/03 04:49:11;;;;;;;;;;;;;;;;;;5011451;28;20033;-72
2024/01/03 04:51:37;;;;;;;10.40;2.58;;;;;;;;;;5012127;28;19924;-71
2024/01/03 04:54:04;;;;;;;;;;;;;;;;;;5001132;28;20488;-72
2024/01/03 04:56:30;;;;;;;10.95;3.10;;;;;;;;;;5011806;28;20850;-71
2024/01/03 04:58:57;;;;;;;8.68;2.63;;;;;;;;;;4996369;28;20087;-73
2024/01/03 05:01:23;;;;;;;;;;;;;;;;;;5008034;28;20143;-71
2024/01/03 05:03:49;;;;;;;8.45;2.53;;;;;;;;;;4997821;28;19931;-72
2024/01/03 05:06:15;;;;;;;10.50;2.90;;;;;;;;;;5000676;28;20035;-71
2024/01/03 05:08:41;;;;;;;10.32;2.50;;;;;;;;;;4989943;28;20048;-72
2024/01/03 05:11:09;;;;;;;9.75;2.65;;;;;;;;;;4996287;28;20774;-72
2024/01/03 05:13:35;;;;;;;10.60;3.00;;;;;;;;;;5008512;28;20041;-72
2024/01/03 05:16:03;;;;;;;13.10;4.00;;;;;;;;;;4994353;28;20034;-71
2024/01/03 05:18:29;;;;;;;15.10;4.60;;;;;;;;;;4994224;28;20037;-72
2024/01/03 05:20:55;;;;;;;12.80;4.03;;;;;;;;;;4994387;28;20505;-71
2024/01/03 05:23:21;;;;;;;11.02;3.30;;;;;;;;;;5000626;28;20045;-72
2024/01/03 05:25:47;;;;;;;11.05;3.40;;;;;;;;;;5009934;28;20025;-72
2024/01/03 05:28:14;;;;;;;12.23;3.60;;;;;;;;;;5014959;28;20064;-72
2024/01/03 05:30:40;;;;;;;;;;;;;;;;;;5010262;28;20669;-71
2024/01/03 05:33:08;;;;;;;10.30;2.95;;;;;;;;;;5010746;28;20696;-71
2024/01/03 05:35:34;;;;;;;19.52;3.53;;;;;;;;;;5012285;28;20764;-71
2024/01/03 05:38:00;;;;;;;12.45;3.20;;;;;;;;;;5013214;28;20030;-71
2024/01/03 05:40:26;;;;;;;12.73;3.63;;;;;;;;;;5010034;28;20048;-72
2024/01/03 05:42:52;;;;;;;11.63;3.33;;;;;;;;;;5013557;28;20830;-72
2024/01/03 05:45:18;;;;;;;11.35;3.30;;;;;;;;;;5012747;28;20033;-73
2024/01/03 05:47:44;;;;;;;12.82;3.25;;;;;;;;;;5010014;28;20025;-72
2024/01/03 05:50:10;;;;;;;12.13;3.72;;;;;;;;;;5006250;28;20029;-71
2024/01/03 05:52:38;;;;;;;11.88;3.60;;;;;;;;;;5025355;28;20033;-72
2024/01/03 05:55:06;;;;;;;20.63;4.63;;;;;;;;;;5000796;28;20562;-72
2024/01/03 05:57:34;;;;;;;18.23;4.15;;;;;;;;;;5004184;28;20644;-71
2024/01/03 06:00:02;;;;;;;14.32;3.42;;;;;;;;;;4990800;28;20068;-73
2024/01/03 06:02:28;;;;;;;13.35;4.00;;;;;;;;;;5001341;28;20068;-73
2024/01/03 06:04:54;;;;;;;12.20;3.45;;;;;;;;;;4995706;28;20036;-71
2024/01/03 06:07:20;;;;;;;12.43;3.90;;;;;;;;;;5015317;28;20025;-71
2024/01/03 06:09:46;;;;;;;10.00;3.08;;;;;;;;;;4996373;28;20030;-71
2024/01/03 06:12:12;;;;;;;;;;;;;;;;;;5003265;28;20018;-72
2024/01/03 06:14:38;;;;;;;11.77;3.33;;;;;;;;;;4996688;28;20479;-72
2024/01/03 06:17:04;;;;;;;;;;;;;;;;;;4999322;28;20045;-72
2024/01/03 06:19:32;;;;;;;12.57;3.65;;;;;;;;;;5002065;28;19909;-71
2024/01/03 06:21:58;;;;;;;9.77;2.85;;;;;;;;;;4996265;28;20332;-71
2024/01/03 06:24:24;;;;;;;9.13;2.97;;;;;;;;;;4999307;28;20055;-72
2024/01/03 06:26:51;;;;;;;10.07;2.85;;;;;;;;;;5005800;28;20025;-73
2024/01/03 06:29:17;;;;;;;9.80;2.97;;;;;;;;;;5007166;28;20037;-71
2024/01/03 06:31:43;;;;;;;9.95;2.83;;;;;;;;;;5007825;28;20028;-71
2024/01/03 06:34:09;;;;;;;11.43;3.00;;;;;;;;;;5007053;28;20120;-71
2024/01/03 06:36:35;;;;;;;10.82;3.20;;;;;;;;;;5008340;28;20068;-72
2024/01/03 06:39:02;;;;;;;11.77;3.28;;;;;;;;;;5002311;28;20081;-71
2024/01/03 06:41:28;;;;;;;13.07;3.25;;;;;;;;;;5008645;28;20861;-72
2024/01/03 06:43:54;;;;;;;11.35;3.22;;;;;;;;;;5005263;28;20030;-72
2024/01/03 06:46:20;;;;;;;11.65;3.40;;;;;;;;;;5005838;28;20037;-72
2024/01/03 06:48:46;;;;;;;11.18;3.00;;;;;;;;;;5007361;28;20033;-73
2024/01/03 06:51:12;;;;;;;9.88;3.00;;;;;;;;;;5007251;28;20022;-73
2024/01/03 06:53:39;;;;;;;13.15;3.17;;;;;;;;;;5007756;28;20350;-72
2024/01/03 06:56:06;;;;;;;12.70;3.15;;;;;;;;;;5003795;28;20043;-71
2024/01/03 06:58:33;;;;;;;14.73;3.47;;;;;;;;;;4998082;28;20073;-73
2024/01/03 07:00:59;;;;;;;13.85;3.50;;;;;;;;;;4992405;28;20057;-71
2024/01/03 07:03:27;;;;;;;12.52;3.45;;;;;;;;;;4996621;28;20041;-73
2024/01/03 07:05:53;;;;;;;12.10;3.08;;;;;;;;;;5011841;28;20030;-71
2024/01/03 07:08:19;;;;;;;12.68;3.63;;;;;;;;;;5000322;28;20584;-72
2024/01/03 07:10:45;;;;;;;13.30;3.75;;;;;;;;;;4992589;28;20295;-72
2024/01/03 07:13:12;;;;;;;12.40;3.58;;;;;;;;;;5001347;28;20857;-71
2024/01/03 07:15:38;;;;;;;;;;;;;;;;;;5004198;28;20036;-71
2024/01/03 07:18:06;;;;;;;14.25;4.68;;;;;;;;;;5015339;28;20029;-72
2024/01/03 07:20:34;;;;;;;16.45;4.43;;;;;;;;;;4999576;28;20095;-71
2024/01/03 07:23:00;;;;;;;13.40;4.03;;;;;;;;;;4998707;28;20042;-73
2024/01/03 07:25:26;;;;;;;13.45;3.80;;;;;;;;;;5003682;28;20068;-73
2024/01/03 07:27:52;;;;;;;;;;;;;;;;;;5008219;28;20033;-72
2024/01/03 07:30:19;;;;;;;12.95;3.75;;;;;;;;;;5003740;28;19913;-72
2024/01/03 07:32:45;;;;;;;;;;;;;;;;;;5009967;28;20601;-71
2024/01/03 07:35:11;;;;;;;11.73;3.08;;;;;;;;;;5009970;28;20019;-72
2024/01/03 07:37:37;;;;;;;11.60;3.65;;;;;;;;;;5008990;28;20044;-73
2024/01/03 07:40:05;;;;;;;13.32;4.03;;;;;;;;;;5007783;28;20064;-72
2024/01/03 07:42:31;;;;;;;15.32;3.40;;;;;;;;;;5025604;28;20494;-71
2024/01/03 07:44:57;;;;;;;13.48;3.90;;;;;;;;;;5005585;28;20044;-72
2024/01/03 07:47:23;;;;;;;12.45;3.30;;;;;;;;;;5011519;28;20652;-72
2024/01/03 07:49:49;;;;;;;11.70;3.15;;;;;;;;;;5004489;28;20032;-72
2024/01/03 07:52:16;;;;;;;9.98;3.20;;;;;;;;;;5008499;28;20040;-72
2024/01/03 07:54:42;;;;;;;;;;;;;;;;;;5001144;28;20730;-72
2024/01/03 07:57:09;;;;;;;10.27;3.30;;;;;;;;;;5014775;28;19962;-71
2024/01/03 07:59:36;;;;;;;11.88;3.85;;;;;;;;;;5012809;28;20046;-71
2024/01/03 08:02:02;;;;;;;13.18;3.90;;;;;;;;;;4999402;28;20044;-72
2024/01/03 08:04:28;;;;;;;;;;;;;;;;;;5000259;28;20033;-72
2024/01/03 08:06:54;;;;;;;12.88;4.07;;;;;;;;;;4994750;28;20909;-73
2024/01/03 08:09:21;;;;;;;10.68;3.83;;;;;;;;;;4999394;28;20120;-73
2024/01/03 08:11:48;;;;;;;12.27;3.40;;;;;;;;;;4998794;28;20038;-72
2024/01/03 08:14:14;;;;;;;13.35;3.60;;;;;;;;;;5005000;28;20104;-72
2024/01/03 08:16:40;;;;;;;11.98;3.17;;;;;;;;;;5012478;28;20025;-71
2024/01/03 08:19:06;;;;;;;14.02;3.80;;;;;;;;;;4997832;28;20072;-72
2024/01/03 08:21:33;;;;;;;9.02;3.00;;;;;;;;;;4995736;28;20073;-73
2024/01/03 08:23:59;;;;;;;14.93;3.72;;;;;;;;;;4996600;28;20622;-72
2024/01/03 08:26:25;;;;;;;12.63;3.65;;;;;;;;;;5008682;28;20129;-72
2024/01/03 08:28:51;;;;;;;12.10;3.53;;;;;;;;;;4998528;28;20026;-74
2024/01/03 08:31:17;;;;;;;;;;;;;;;;;;5003728;28;20034;-71
2024/01/03 08:33:45;;;;;;;10.82;3.33;;;;;;;;;;5002103;28;20646;-72
2024/01/03 08:36:13;;;;;;;10.38;3.72;;;;;;;;;;5015126;28;20107;-72
2024/01/03 08:38:39;;;;;;;10.82;3.70;;;;;;;;;;5001070;28;20714;-73
2024/01/03 08:41:15;;;;;;;12.55;3.78;;;;;;;;;;5008214;28;20083;-72
2024/01/03 08:43:42;;;;;;;14.43;4.27;;;;;;;;;;5003612;28;20087;-72
2024/01/03 08:46:08;;;;;;;;;;;;;;;;;;5007061;28;20290;-73
2024/01/03 08:48:35;;;;;;;15.32;4.57;;;;;;;;;;5004710;28;19912;-71
2024/01/03 08:51:02;;;;;;;13.80;4.93;;;;;;;;;;5000779;28;20052;-73
2024/01/03 08:53:27;;;;;;;;;;;;;;;;;;5004850;28;20037;-71
2024/01/03 08:55:54;;;;;;;13.90;4.97;;;;;;;;;;4994121;28;19920;-73
2024/01/03 08:58:20;;;;;;;;;;;;;;;;;;4997547;28;20043;-72
2024/01/03 09:00:46;;;;;;;14.68;4.90;;;;;;;;;;4991716;28;20297;-71
2024/01/03 09:03:12;;;;;;;13.43;5.15;;;;;;;;;;5010269;28;20030;-73
2024/01/03 09:05:38;;;;;;;14.57;5.57;;;;;;;;;;4998561;28;20037;-73
2024/01/03 09:08:06;;;;;;;15.85;5.45;;;;;;;;;;5001613;28;20164;-73
2024/01/03 09:10:32;;;;;;;21.90;6.28;;;;;;;;;;4997510;28;20087;-71
2024/01/03 09:12:58;;;;;;;15.27;6.00;;;;;;;;;;4991641;28;20784;-73
2024/01/03 09:15:24;;;;;;;;;;;;;;;;;;5002612;28;20037;-72
2024/01/03 09:17:51;;;;;;;17.70;7.68;;;;;;;;;;5009377;28;19964;-73
2024/01/03 09:20:17;;;;;;;;;;;;;;;;;;4995028;28;20025;-72
2024/01/03 09:22:43;;;;;;;21.83;9.38;;;;;;;;;;5008258;28;20488;-72
2024/01/03 09:25:10;;;;;;;;;;;;;;;;;;5002783;28;20231;-73
2024/01/03 09:27:36;;;;;;;18.65;8.60;;;;;;;;;;5010646;28;19920;-72
2024/01/03 09:30:03;;;;;;;20.17;7.65;;;;;;;;;;5003033;28;20029;-72
2024/01/03 09:32:29;;;;;;;14.80;6.70;;;;;;;;;;5008184;28;20429;-71
2024/01/03 09:34:55;;;;;;;;;;;;;;;;;;5005550;28;20039;-72
2024/01/03 09:37:21;;;;;;;17.35;7.75;;;;;;;;;;5006964;28;20188;-73
2024/01/03 09:39:47;;;;;;;17.48;6.68;;;;;;;;;;5004699;28;20033;-72
2024/01/03 09:42:13;;;;;;;16.52;7.00;;;;;;;;;;5011243;28;21609;-72
2024/01/03 09:44:42;;;;;;;19.13;6.85;;;;;;;;;;5009742;28;20031;-72
2024/01/03 09:47:08;;;;;;;14.32;5.85;;;;;;;;;;5005138;28;20124;-72
2024/01/03 09:49:35;;;;;;;15.52;5.03;;;;;;;;;;5005204;28;20033;-72
2024/01/03 09:52:02;;;;;;;13.80;5.10;;;;;;;;;;5014686;28;20025;-72
2024/01/03 09:54:28;;;;;;;11.30;4.97;;;;;;;;;;5000363;28;20033;-72
2024/01/03 09:56:56;;;;;;;15.77;4.55;;;;;;;;;;4999025;28;20354;-74
2024/01/03 09:59:22;;;;;;;14.07;4.20;;;;;;;;;;4999118;28;20048;-72
2024/01/03 10:01:56;;;;;;;14.05;4.80;;;;;;;;;;4997171;28;20032;-72
2024/01/03 10:04:22;;;;;;;14.07;4.90;;;;;;;;;;4997648;28;20064;-72
2024/01/03 10:06:53;;;;;;;16.38;4.28;;;;;;;;;;5010207;28;20553;-71
2024/01/03 10:09:20;;;;;;;11.07;3.90;;;;;;;;;;5003041;28;20033;-73
2024/01/03 10:11:51;;;;;;;10.90;4.30;;;;;;;;;;5011398;28;20033;-72
2024/01/03 10:14:18;;;;;;;15.18;6.18;;;;;;;;;;4998602;28;20124;-73
2024/01/03 10:16:45;;;;;;;13.30;5.22;;;;;;;;;;4991240;28;20030;-73
2024/01/03 10:19:14;;;;;;;13.73;4.40;;;;;;;;;;4996695;28;20041;-73
2024/01/03 10:21:48;;;;;;;11.13;3.58;;;;;;;;;;4997162;28;20029;-71
2024/01/03 10:24:14;;;;;;;9.95;3.20;;;;;;;;;;4996668;28;20037;-71
2024/01/03 10:26:41;;;;;;;13.95;3.92;;;;;;;;;;5003616;28;20026;-72
2024/01/03 10:29:14;;;;;;;10.50;3.38;;;;;;;;;;5009609;28;20515;-72
2024/01/03 10:31:41;;;;;;;12.45;4.30;;;;;;;;;;5006072;28;20075;-71
2024/01/03 10:34:12;;;;;;;13.90;5.13;;;;;;;;;;5009191;28;20124;-72
2024/01/03 10:36:40;;;;;;;16.60;6.50;;;;;;;;;;5020805;28;20041;-71
2024/01/03 10:39:06;;;;;;;13.15;6.10;;;;;;;;;;5023476;28;20037;-72
2024/01/03 10:41:33;;;;;;;14.38;5.03;;;;;;;;;;5006894;28;20037;-71
2024/01/03 10:44:01;;;;;;;11.68;4.28;;;;;;;;;;5006131;28;20862;-73
2024/01/03 10:46:28;;;;;;;11.80;3.50;;;;;;;;;;5008978;28;20133;-73
2024/01/03 10:48:54;;;;;;;10.52;3.00;;;;;;;;;;5008835;28;20096;-72
2024/01/03 10:51:22;;;;;;;11.43;2.95;;;;;;;;;;5012190;28;20029;-72
2024/01/03 10:53:51;;;;;;;12.82;2.90;;;;;;;;;;4999655;28;20041;-72
2024/01/03 10:56:17;;;;;;;10.75;3.35;;;;;;;;;;4992022;28;20069;-72
2024/01/03 10:58:43;;;;;;;15.27;3.50;;;;;;;;;;4996180;28;20052;-72
2024/01/03 11:01:16;;;;;;;10.60;3.40;;;;;;;;;;4996642;28;20054;-72
2024/01/03 11:03:58;;;;;;;12.65;3.08;;;;;;;;;;4991694;28;20050;-72
2024/01/03 11:06:27;;;;;;;12.65;3.58;;;;;;;;;;4999666;28;20609;-71
2024/01/03 11:08:54;;;;;;;11.60;3.03;;;;;;;;;;4992578;28;20192;-73
2024/01/03 11:11:30;;;;;;;11.77;3.70;;;;;;;;;;4998422;28;20084;-72
2024/01/03 11:13:57;;;;;;;10.18;3.30;;;;;;;;;;4993840;28;20041;-73
2024/01/03 11:16:35;;;;;;;9.55;3.35;;;;;;;;;;5002859;28;20104;-72
2024/01/03 11:19:01;;;;;;;12.00;2.90;;;;;;;;;;5011364;28;20152;-73
2024/01/03 11:21:28;;;;;;;10.02;2.63;;;;;;;;;;4998260;28;20095;-73
2024/01/03 11:23:55;;;;;;;11.52;2.72;;;;;;;;;;4998951;28;20037;-72
2024/01/03 11:26:41;;;;;;;8.50;2.65;;;;;;;;;;5026731;28;20053;-72
2024/01/03 11:29:07;;;;;;;8.18;2.40;;;;;;;;;;5009682;28;20029;-72
2024/01/03 11:31:53;;;;;;;7.28;2.22;;;;;;;;;;5008902;28;20030;-72
2024/01/03 11:34:19;;;;;;;;;;;;;;;;;;5014440;28;20033;-70
2024/01/03 11:36:46;;;;;;;8.68;2.08;;;;;;;;;;5010112;28;19963;-72
2024/01/03 11:39:31;;;;;;;8.57;2.10;;;;;;;;;;5005553;28;20160;-70
2024/01/03 11:41:58;;;;;;;6.35;1.67;;;;;;;;;;5008589;28;20086;-73
2024/01/03 11:44:25;;;;;;;6.15;1.60;;;;;;;;;;5010599;28;20040;-71
2024/01/03 11:46:58;;;;;;;6.40;1.65;;;;;;;;;;5007356;28;20025;-72
2024/01/03 11:49:24;;;;;;;8.15;1.80;;;;;;;;;;5010081;28;20037;-73
2024/01/03 11:51:52;;;;;;;6.43;1.63;;;;;;;;;;5005766;28;20029;-72
2024/01/03 11:54:18;;;;;;;7.07;1.70;;;;;;;;;;5003970;28;20106;-72
2024/01/03 11:56:45;;;;;;;10.77;2.05;;;;;;;;;;4991286;28;20069;-72
2024/01/03 11:59:12;;;;;;;7.07;2.15;;;;;;;;;;4995536;28;20489;-71
2024/01/03 12:01:38;;;;;;;5.45;1.40;;;;;;;;;;5012053;28;20021;-71
2024/01/03 12:04:08;;;;;;;5.97;1.80;;;;;;;;;;4994305;28;20106;-71
2024/01/03 12:06:35;;;;;;;6.18;1.42;;;;;;;;;;4997475;28;20030;-72
2024/01/03 12:09:02;;;;;;;5.15;1.42;;;;;;;;;;4993524;28;21294;-73
2024/01/03 12:11:30;;;;;;;5.78;1.40;;;;;;;;;;4993391;28;20955;-73
2024/01/03 12:13:56;;;;;;;5.80;1.30;;;;;;;;;;4990091;28;20045;-72
2024/01/03 12:16:23;;;;;;;5.13;1.33;;;;;;;;;;4994050;28;20034;-74
2024/01/03 12:18:53;;;;;;;6.82;1.20;;;;;;;;;;4993314;28;20124;-73
2024/01/03 12:21:20;;;;;;;6.53;1.45;;;;;;;;;;4996274;28;20665;-73
2024/01/03 12:24:02;;;;;;;6.28;1.45;;;;;;;;;;4994456;28;20174;-74
2024/01/03 12:26:29;;;;;;;10.73;1.83;;;;;;;;;;5003222;28;20527;-74
2024/01/03 12:29:02;;;;;;;9.95;2.60;;;;;;;;;;5002670;28;20048;-74
2024/01/03 12:31:28;;;;;;;8.93;2.40;;;;;;;;;;5004858;28;20034;-72
2024/01/03 12:34:03;;;;;;;8.85;2.40;;;;;;;;;;5004548;28;20025;-74
2024/01/03 12:36:30;;;;;;;7.90;2.22;;;;;;;;;;5008387;28;20113;-72
2024/01/03 12:38:59;;;;;;;14.57;2.58;;;;;;;;;;5005151;28;20136;-74
2024/01/03 12:41:25;;;;;;;9.43;2.25;;;;;;;;;;5009169;28;20029;-72
2024/01/03 12:43:51;;;;;;;9.63;2.65;;;;;;;;;;5008435;28;20033;-73
2024/01/03 12:46:18;;;;;;;8.43;2.22;;;;;;;;;;5008812;28;20030;-73
2024/01/03 12:48:45;;;;;;;8.75;2.35;;;;;;;;;;5002077;28;20028;-72
2024/01/03 12:51:11;;;;;;;9.82;2.17;;;;;;;;;;5006691;28;20546;-75
2024/01/03 12:53:38;;;;;;;9.57;2.20;;;;;;;;;;5004629;28;20033;-73
2024/01/03 12:56:04;;;;;;;6.78;2.45;;;;;;;;;;4992749;28;20503;-73
2024/01/03 12:58:30;;;;;;;6.68;1.77;;;;;;;;;;4993893;28;20104;-73
2024/01/03 13:00:58;;;;;;;6.43;2.00;;;;;;;;;;4990278;28;20165;-74
2024/01/03 13:03:24;;;;;;;7.15;1.95;;;;;;;;;;4993258;28;20139;-73
2024/01/03 13:05:51;;;;;;;5.45;1.83;;;;;;;;;;5004549;28;20187;-74
2024/01/03 13:08:18;;;;;;;6.20;2.35;;;;;;;;;;5000137;28;20017;-73
2024/01/03 13:10:44;;;;;;;4.97;1.58;;;;;;;;;;4991403;28;20113;-74
2024/01/03 13:13:12;;;;;;;5.53;1.50;;;;;;;;;;4993806;28;20045;-72
2024/01/03 13:15:39;;;;;;;4.43;1.38;;;;;;;;;;4994280;28;20033;-73
2024/01/03 13:18:05;;;;;;;6.78;1.40;;;;;;;;;;4995819;28;21175;-72
2024/01/03 13:20:33;;;;;;;6.93;2.47;;;;;;;;;;4991132;28;20025;-74
2024/01/03 13:22:59;;;;;;;19.45;6.10;;;;;;;;;;5006312;28;20045;-74
2024/01/03 13:25:25;;;;;;;9.15;2.80;;;;;;;;;;5000484;28;20187;-73
2024/01/03 13:27:51;;;;;;;9.02;2.53;;;;;;;;;;5002467;28;20037;-74
2024/01/03 13:30:18;;;;;;;5.80;2.05;;;;;;;;;;5007404;28;20116;-73
2024/01/03 13:32:45;;;;;;;8.93;1.95;;;;;;;;;;4999667;28;20033;-73
2024/01/03 13:35:11;;;;;;;6.05;1.77;;;;;;;;;;5006032;28;20040;-72
2024/01/03 13:37:38;;;;;;;5.72;1.83;;;;;;;;;;5008987;28;20101;-74
2024/01/03 13:40:05;;;;;;;7.72;2.05;;;;;;;;;;5003498;28;20026;-74
2024/01/03 13:42:31;;;;;;;6.10;1.80;;;;;;;;;;5006301;28;20038;-73
2024/01/03 13:44:58;;;;;;;5.57;1.50;;;;;;;;;;5007089;28;20032;-73
2024/01/03 13:47:24;;;;;;;6.30;1.75;;;;;;;;;;5012018;28;20164;-73
2024/01/03 13:49:50;;;;;;;7.70;1.60;;;;;;;;;;5003810;28;20025;-73
2024/01/03 13:52:18;;;;;;;5.95;1.20;;;;;;;;;;5009170;28;20029;-74
2024/01/03 13:54:46;;;;;;;6.38;1.60;;;;;;;;;;5000757;28;20030;-73
2024/01/03 13:57:12;;;;;;;5.82;1.45;;;;;;;;;;4997806;28;20022;-72
2024/01/03 13:59:40;;;;;;;5.30;1.45;;;;;;;;;;4996340;28;20051;-73
2024/01/03 14:02:06;;;;;;;6.22;1.65;;;;;;;;;;4997833;28;20472;-73
2024/01/03 14:04:32;;;;;;;5.70;2.08;;;;;;;;;;4998466;28;20435;-72
2024/01/03 14:06:58;;;;;;;10.18;3.92;;;;;;;;;;4992214;28;20774;-73
2024/01/03 14:09:25;;;;;;;8.05;1.65;;;;;;;;;;5000613;28;20026;-74
2024/01/03 14:11:52;;;;;;;5.85;1.50;;;;;;;;;;4993959;28;20038;-73
2024/01/03 14:14:20;;;;;;;5.10;1.08;;;;;;;;;;4999377;28;20030;-72
2024/01/03 14:16:46;;;;;;;4.72;1.20;;;;;;;;;;4998091;28;20030;-74
2024/01/03 14:19:12;;;;;;;6.18;1.77;;;;;;;;;;5000113;28;20037;-72
2024/01/03 14:21:49;;;;;;;5.13;1.35;;;;;;;;;;4996462;28;20041;-73
2024/01/03 14:24:19;;;;;;;4.78;1.08;;;;;;;;;;5006875;28;20033;-74
2024/01/03 14:26:46;;;;;;;6.05;1.30;;;;;;;;;;5011340;28;20112;-73
2024/01/03 14:29:13;;;;;;;7.88;1.65;;;;;;;;;;5026082;28;20045;-72
2024/01/03 14:31:42;;;;;;;5.63;1.52;;;;;;;;;;5025830;28;20032;-73
2024/01/03 14:34:08;;;;;;;9.80;1.42;;;;;;;;;;5028188;28;20033;-74
2024/01/03 14:36:34;;;;;;;5.75;1.40;;;;;;;;;;5027892;28;20029;-74
2024/01/03 14:39:07;;;;;;;7.10;1.55;;;;;;;;;;5023682;28;20092;-74
2024/01/03 14:41:35;;;;;;;8.88;1.73;;;;;;;;;;5025828;28;20029;-72